createdAt,value
2023-03-31T00:01:34.501Z,99420.16
2023-03-31T00:04:05.460Z,99414.28
2023-03-31T00:06:38.505Z,99418.03
2023-03-31T00:09:09.606Z,99426.25
2023-03-31T00:11:39.676Z,99418.84
2023-03-31T00:14:08.411Z,99419.31
2023-03-31T00:16:36.598Z,99404.34
2023-03-31T00:19:10.326Z,99425.66
2023-03-31T00:21:38.001Z,99419.22
2023-03-31T00:24:07.926Z,99413.03
2023-03-31T00:26:37.005Z,99410.69
2023-03-31T00:29:07.137Z,99411.75
2023-03-31T00:31:34.911Z,99409.63
2023-03-31T00:34:03.112Z,99406.69
2023-03-31T00:36:36.656Z,99405.88
2023-03-31T00:39:08.812Z,99402.44
2023-03-31T00:41:39.099Z,99398.69
2023-03-31T00:44:13.423Z,99384.56
2023-03-31T00:46:45.715Z,99388.81
2023-03-31T00:49:24.180Z,99378.75
2023-03-31T00:51:55.222Z,99360.09
2023-03-31T00:54:27.315Z,99357.72
2023-03-31T00:57:03.298Z,99347.56
2023-03-31T00:59:35.341Z,99356.34
2023-03-31T01:02:04.624Z,99340.34
2023-03-31T01:04:36.897Z,99326.78
2023-03-31T01:07:12.416Z,99324.13
2023-03-31T01:12:35.688Z,99276.16
2023-03-31T01:15:05.010Z,99273.75
2023-03-31T01:17:33.114Z,99253.28
2023-03-31T01:20:14.243Z,99254.06
2023-03-31T01:23:23.931Z,99242.13
2023-03-31T01:26:21.142Z,99237.03
2023-03-31T01:28:57.154Z,99222.69
2023-03-31T01:32:01.471Z,99223.72
2023-03-31T01:34:59.807Z,99224.53
2023-03-31T01:38:11.058Z,99197.13
2023-03-31T01:40:54.331Z,99186.00
2023-03-31T01:43:27.947Z,99170.25
2023-03-31T01:46:02.020Z,99163.09
2023-03-31T01:48:40.340Z,99156.41
2023-03-31T01:51:14.780Z,99153.50
2023-03-31T01:53:50.307Z,99130.03
2023-03-31T01:56:23.855Z,99126.59
2023-03-31T01:58:58.153Z,99120.47
2023-03-31T02:01:31.970Z,99110.34
2023-03-31T02:04:09.235Z,99117.25
2023-03-31T02:06:41.568Z,99101.28
2023-03-31T02:09:14.724Z,99083.75
2023-03-31T02:11:45.655Z,99070.44
2023-03-31T02:14:19.216Z,99064.59
2023-03-31T02:16:50.420Z,99061.38
2023-03-31T02:19:20.623Z,99057.13
2023-03-31T02:21:50.648Z,99053.38
2023-03-31T02:24:22.853Z,99037.44
2023-03-31T02:26:56.475Z,99033.19
2023-03-31T02:29:25.167Z,99021.47
2023-03-31T02:32:02.666Z,99021.47
2023-03-31T02:34:31.170Z,99008.69
2023-03-31T02:36:59.127Z,99008.69
2023-03-31T02:39:30.807Z,99000.72
2023-03-31T02:42:03.030Z,98985.25
2023-03-31T02:44:30.718Z,98978.09
2023-03-31T02:46:58.484Z,98981.00
2023-03-31T02:49:27.009Z,98974.63
2023-03-31T02:52:19.855Z,98973.56
2023-03-31T02:55:06.249Z,98948.53
2023-03-31T02:58:03.518Z,98931.53
2023-03-31T03:00:42.341Z,98925.16
2023-03-31T03:03:24.532Z,98921.41
2023-03-31T03:06:05.238Z,98915.84
2023-03-31T03:08:49.092Z,98908.91
2023-03-31T03:11:24.206Z,98914.25
2023-03-31T03:14:01.666Z,98912.66
2023-03-31T03:16:36.137Z,98900.16
2023-03-31T03:19:06.954Z,98890.31
2023-03-31T03:21:35.326Z,98886.84
2023-03-31T03:24:03.751Z,98884.19
2023-03-31T03:26:35.125Z,98881.53
2023-03-31T03:29:04.855Z,98874.63
2023-03-31T03:31:33.565Z,98867.72
2023-03-31T03:34:01.825Z,98860.00
2023-03-31T03:36:30.155Z,98849.09
2023-03-31T03:38:57.825Z,98836.59
2023-03-31T03:41:25.706Z,98833.69
2023-03-31T03:43:53.889Z,98835.53
2023-03-31T03:46:22.975Z,98842.16
2023-03-31T03:48:50.693Z,98882.31
2023-03-31T03:51:18.946Z,98879.94
2023-03-31T03:53:46.684Z,98865.84
2023-03-31T03:56:14.506Z,98856.00
2023-03-31T03:58:42.779Z,98837.38
2023-03-31T04:01:10.582Z,98856.50
2023-03-31T04:03:39.646Z,98854.94
2023-03-31T04:06:08.662Z,98833.66
2023-03-31T04:08:36.924Z,98798.59
2023-03-31T04:11:04.712Z,98789.00
2023-03-31T04:13:32.857Z,98774.38
2023-03-31T04:16:00.698Z,98777.84
2023-03-31T04:18:28.374Z,98762.97
2023-03-31T04:21:05.389Z,98764.28
2023-03-31T04:23:33.292Z,98753.94
2023-03-31T04:26:01.323Z,98761.63
2023-03-31T04:28:35.282Z,98753.66
2023-03-31T04:31:03.142Z,98735.84
2023-03-31T04:33:30.992Z,98730.28
2023-03-31T04:36:07.627Z,98737.19
2023-03-31T04:38:35.477Z,98726.28
2023-03-31T04:41:03.306Z,98727.34
2023-03-31T04:43:31.638Z,98721.50
2023-03-31T04:45:59.372Z,98720.69
2023-03-31T04:48:27.117Z,98723.09
2023-03-31T04:50:55.310Z,98710.88
2023-03-31T04:53:24.390Z,98706.38
2023-03-31T04:55:52.054Z,98700.25
2023-03-31T04:58:20.081Z,98694.13
2023-03-31T05:00:47.774Z,98702.38
2023-03-31T05:03:15.690Z,98696.25
2023-03-31T05:05:44.073Z,98698.63
2023-03-31T05:08:11.884Z,98688.28
2023-03-31T05:10:41.040Z,98686.69
2023-03-31T05:13:11.101Z,98687.22
2023-03-31T05:15:39.540Z,98675.53
2023-03-31T05:18:07.600Z,98683.75
2023-03-31T05:20:36.037Z,98689.63
2023-03-31T05:23:03.716Z,98683.50
2023-03-31T05:25:33.431Z,98684.81
2023-03-31T05:28:03.640Z,98684.31
2023-03-31T05:30:31.573Z,98669.97
2023-03-31T05:32:59.278Z,98676.06
2023-03-31T05:35:28.069Z,98664.38
2023-03-31T05:37:55.819Z,98668.88
2023-03-31T05:40:23.499Z,98662.50
2023-03-31T05:42:51.603Z,98660.63
2023-03-31T05:45:20.719Z,98665.97
2023-03-31T05:47:48.435Z,98657.19
2023-03-31T05:50:16.638Z,98650.28
2023-03-31T05:52:44.324Z,98649.75
2023-03-31T05:55:13.228Z,98649.22
2023-03-31T05:57:40.930Z,98642.31
2023-03-31T06:00:11.340Z,98639.94
2023-03-31T06:02:41.447Z,98640.16
2023-03-31T06:05:10.004Z,98637.50
2023-03-31T06:07:37.695Z,98628.75
2023-03-31T06:10:08.518Z,98622.91
2023-03-31T06:12:36.196Z,98617.03
2023-03-31T06:15:04.480Z,98604.81
2023-03-31T06:17:32.735Z,98619.97
2023-03-31T06:20:05.733Z,98612.56
2023-03-31T06:22:38.246Z,98616.25
2023-03-31T06:25:06.838Z,98612.81
2023-03-31T06:27:34.468Z,98613.09
2023-03-31T06:30:02.341Z,98609.63
2023-03-31T06:32:29.973Z,98604.31
2023-03-31T06:34:57.603Z,98600.06
2023-03-31T06:37:26.654Z,98612.28
2023-03-31T06:39:54.410Z,98602.69
2023-03-31T06:42:22.083Z,98603.47
2023-03-31T06:44:49.930Z,98602.41
2023-03-31T06:47:17.584Z,98602.94
2023-03-31T06:49:45.282Z,98600.25
2023-03-31T06:52:13.178Z,98593.63
2023-03-31T06:54:42.309Z,98599.69
2023-03-31T06:57:10.174Z,98601.56
2023-03-31T06:59:37.981Z,98588.00
2023-03-31T07:02:05.744Z,98593.56
2023-03-31T07:04:33.592Z,98595.16
2023-03-31T07:07:01.986Z,98580.00
2023-03-31T07:09:29.793Z,98583.44
2023-03-31T07:11:58.852Z,98591.16
2023-03-31T07:14:27.122Z,98586.34
2023-03-31T07:16:54.908Z,98590.59
2023-03-31T07:19:22.945Z,98590.59
2023-03-31T07:21:50.937Z,98588.47
2023-03-31T07:24:18.735Z,98588.69
2023-03-31T07:26:46.750Z,98596.16
2023-03-31T07:29:16.477Z,98578.38
2023-03-31T07:31:44.146Z,98589.50
2023-03-31T07:34:11.830Z,98591.38
2023-03-31T07:36:39.539Z,98603.63
2023-03-31T07:39:07.641Z,98603.88
2023-03-31T07:41:35.968Z,98602.28
2023-03-31T07:44:04.269Z,98603.63
2023-03-31T07:46:33.423Z,98589.53
2023-03-31T07:49:03.107Z,98595.88
2023-03-31T07:51:30.672Z,98599.34
2023-03-31T07:53:58.325Z,98586.31
2023-03-31T07:56:26.237Z,98599.91
2023-03-31T07:58:57.338Z,98597.50
2023-03-31T08:01:28.837Z,98602.28
2023-03-31T08:03:58.976Z,98594.03
2023-03-31T08:06:28.786Z,98593.78
2023-03-31T08:08:56.385Z,98590.34
2023-03-31T08:11:24.937Z,98596.16
2023-03-31T08:13:52.853Z,98590.06
2023-03-31T08:16:20.562Z,98590.59
2023-03-31T08:18:48.572Z,98586.38
2023-03-31T08:21:17.755Z,98577.84
2023-03-31T08:23:45.592Z,98577.06
2023-03-31T08:26:17.892Z,98587.97
2023-03-31T08:28:45.888Z,98581.31
2023-03-31T08:31:16.667Z,98579.44
2023-03-31T08:33:44.421Z,98581.56
2023-03-31T08:36:13.565Z,98577.91
2023-03-31T08:38:46.568Z,98562.94
2023-03-31T08:41:35.242Z,98554.72
2023-03-31T08:44:09.441Z,98586.34
2023-03-31T08:46:38.430Z,98567.47
2023-03-31T08:49:08.963Z,98566.97
2023-03-31T08:51:42.622Z,98557.09
2023-03-31T08:54:16.938Z,98549.63
2023-03-31T08:56:49.764Z,98544.31
2023-03-31T08:59:21.959Z,98541.66
2023-03-31T09:01:57.058Z,98533.66
2023-03-31T09:04:51.401Z,98539.81
2023-03-31T09:07:28.966Z,98543.25
2023-03-31T09:10:04.639Z,98549.34
2023-03-31T09:12:41.539Z,98538.97
2023-03-31T09:15:14.674Z,98542.13
2023-03-31T09:17:47.494Z,98530.16
2023-03-31T09:20:21.791Z,98538.13
2023-03-31T09:22:54.554Z,98525.09
2023-03-31T09:25:28.161Z,98522.69
2023-03-31T09:27:59.217Z,98535.19
2023-03-31T09:30:29.637Z,98520.28
2023-03-31T09:33:12.773Z,98518.38
2023-03-31T09:35:40.517Z,98512.22
2023-03-31T09:38:08.352Z,98501.06
2023-03-31T09:40:37.850Z,98488.28
2023-03-31T09:43:08.211Z,98496.72
2023-03-31T09:45:36.588Z,98500.44
2023-03-31T09:48:09.726Z,98494.53
2023-03-31T09:50:42.483Z,98496.19
2023-03-31T09:53:19.347Z,98494.31
2023-03-31T09:55:53.440Z,98484.97
2023-03-31T09:58:25.104Z,98488.75
2023-03-31T10:01:02.218Z,98488.75
2023-03-31T10:03:37.142Z,98491.19
2023-03-31T10:06:11.053Z,98479.47
2023-03-31T10:08:43.040Z,98486.63
2023-03-31T10:11:13.978Z,98493.66
2023-03-31T10:13:48.760Z,98473.91
2023-03-31T10:16:23.532Z,98476.31
2023-03-31T10:18:51.610Z,98473.91
2023-03-31T10:21:24.447Z,98456.91
2023-03-31T10:23:53.164Z,98443.09
2023-03-31T10:26:24.339Z,98456.56
2023-03-31T10:28:55.322Z,98458.72
2023-03-31T10:31:27.329Z,98449.38
2023-03-31T10:33:56.166Z,98445.66
2023-03-31T10:36:27.210Z,98439.75
2023-03-31T10:38:55.880Z,98436.31
2023-03-31T10:41:27.435Z,98439.22
2023-03-31T10:43:56.473Z,98453.06
2023-03-31T10:46:42.133Z,98456.03
2023-03-31T10:49:17.294Z,98443.50
2023-03-31T10:51:50.828Z,98443.50
2023-03-31T10:54:18.508Z,98453.06
2023-03-31T10:56:52.598Z,98454.69
2023-03-31T10:59:43.204Z,98453.06
2023-03-31T11:02:46.944Z,98444.84
2023-03-31T11:05:22.451Z,98453.59
2023-03-31T11:08:05.022Z,98459.97
2023-03-31T11:10:44.743Z,98436.06
2023-03-31T11:13:21.451Z,98439.25
2023-03-31T11:15:56.802Z,98449.38
2023-03-31T11:18:41.557Z,98435.28
2023-03-31T11:21:21.203Z,98439.59
2023-03-31T11:23:52.347Z,98431.88
2023-03-31T11:26:31.645Z,98431.28
2023-03-31T11:29:11.554Z,98431.31
2023-03-31T11:31:49.871Z,98422.50
2023-03-31T11:34:47.255Z,98419.31
2023-03-31T11:37:29.440Z,98411.06
2023-03-31T11:40:10.836Z,98401.72
2023-03-31T11:42:43.412Z,98401.44
2023-03-31T11:45:19.758Z,98383.34
2023-03-31T11:47:51.881Z,98381.19
2023-03-31T11:50:23.551Z,98374.28
2023-03-31T11:52:59.178Z,98362.84
2023-03-31T11:55:29.535Z,98368.91
2023-03-31T11:58:05.133Z,98381.66
2023-03-31T12:00:40.500Z,98376.81
2023-03-31T12:03:14.446Z,98373.72
2023-03-31T12:05:47.545Z,98380.16
2023-03-31T12:08:21.089Z,98380.34
2023-03-31T12:10:53.411Z,98371.56
2023-03-31T12:13:42.013Z,98386.50
2023-03-31T12:16:16.568Z,98387.34
2023-03-31T12:18:54.423Z,98388.13
2023-03-31T12:21:26.181Z,98390.34
2023-03-31T12:23:53.936Z,98414.81
2023-03-31T12:26:36.957Z,98411.13
2023-03-31T12:29:08.999Z,98414.47
2023-03-31T12:31:42.021Z,98421.97
2023-03-31T12:34:14.931Z,98398.91
2023-03-31T12:36:55.594Z,98380.53
2023-03-31T12:39:40.018Z,98383.16
2023-03-31T12:42:48.190Z,98373.59
2023-03-31T12:45:25.876Z,98379.72
2023-03-31T12:48:26.666Z,98374.34
2023-03-31T12:51:05.357Z,98382.63
2023-03-31T12:53:40.197Z,98373.81
2023-03-31T12:56:08.634Z,98365.09
2023-03-31T12:58:42.409Z,98359.44
2023-03-31T13:01:14.811Z,98369.00
2023-03-31T13:03:56.442Z,98375.06
2023-03-31T13:07:01.100Z,98375.03
2023-03-31T13:09:52.999Z,98351.66
2023-03-31T13:12:23.759Z,98356.44
2023-03-31T13:14:54.633Z,98363.13
2023-03-31T13:17:26.187Z,98371.56
2023-03-31T13:19:57.781Z,98359.69
2023-03-31T13:22:34.921Z,98385.19
2023-03-31T13:25:50.069Z,98373.47
2023-03-31T13:28:25.901Z,98357.31
2023-03-31T13:30:56.713Z,98355.00
2023-03-31T13:33:31.960Z,98357.59
2023-03-31T13:36:35.392Z,98375.72
2023-03-31T13:39:18.658Z,98351.00
2023-03-31T13:42:00.393Z,98342.78
2023-03-31T13:45:02.378Z,98348.88
2023-03-31T13:47:44.695Z,98337.75
2023-03-31T13:50:38.326Z,98339.09
2023-03-31T13:53:23.435Z,98336.97
2023-03-31T13:56:02.123Z,98326.63
2023-03-31T13:58:49.880Z,98335.97
2023-03-31T14:01:47.039Z,98355.81
2023-03-31T14:04:39.133Z,98341.81
2023-03-31T14:07:10.905Z,98348.41
2023-03-31T14:09:47.461Z,98346.34
2023-03-31T14:12:23.187Z,98346.38
2023-03-31T14:14:54.976Z,98339.19
2023-03-31T14:17:24.643Z,98339.91
2023-03-31T14:20:09.294Z,98345.50
2023-03-31T14:22:48.912Z,98325.28
2023-03-31T14:25:24.424Z,98332.19
2023-03-31T14:28:02.412Z,98336.97
2023-03-31T14:30:43.030Z,98308.78
2023-03-31T14:33:25.134Z,98314.06
2023-03-31T14:35:59.384Z,98308.50
2023-03-31T14:38:29.861Z,98291.22
2023-03-31T14:41:01.925Z,98307.75
2023-03-31T14:43:33.637Z,98277.13
2023-03-31T14:46:04.104Z,98306.19
2023-03-31T14:48:34.739Z,98287.06
2023-03-31T14:51:04.686Z,98288.06
2023-03-31T14:53:32.423Z,98315.44
2023-03-31T14:56:07.016Z,98300.00
2023-03-31T14:58:38.089Z,98303.97
2023-03-31T15:01:08.539Z,98297.28
2023-03-31T15:03:41.533Z,98298.88
2023-03-31T15:06:10.086Z,98300.22
2023-03-31T15:08:38.803Z,98296.81
2023-03-31T15:11:13.960Z,98291.31
2023-03-31T15:13:56.789Z,98304.56
2023-03-31T15:16:36.621Z,98290.13
2023-03-31T15:19:12.788Z,98286.97
2023-03-31T15:21:41.016Z,98300.78
2023-03-31T15:24:09.057Z,98283.25
2023-03-31T15:26:42.205Z,98292.53
2023-03-31T15:29:14.897Z,98290.72
2023-03-31T15:31:43.434Z,98299.44
2023-03-31T15:34:18.681Z,98276.81
2023-03-31T15:36:47.044Z,98264.59
2023-03-31T15:39:15.899Z,98302.66
2023-03-31T15:41:48.839Z,98300.56
2023-03-31T15:44:31.207Z,98304.56
2023-03-31T15:47:04.042Z,98280.59
2023-03-31T15:49:31.954Z,98266.50
2023-03-31T15:52:02.250Z,98288.28
2023-03-31T15:54:37.460Z,98286.50
2023-03-31T15:57:08.026Z,98287.03
2023-03-31T16:02:23.546Z,98281.50
2023-03-31T16:04:56.593Z,98287.41
2023-03-31T16:07:27.382Z,98289.78
2023-03-31T16:09:59.025Z,98292.94
2023-03-31T16:12:30.630Z,98292.44
2023-03-31T16:15:05.360Z,98282.31
2023-03-31T16:17:37.462Z,98263.97
2023-03-31T16:20:11.247Z,98288.72
2023-03-31T16:22:42.704Z,98283.41
2023-03-31T16:25:13.981Z,98297.78
2023-03-31T16:27:46.714Z,98299.38
2023-03-31T16:30:18.009Z,98308.97
2023-03-31T16:33:03.837Z,98291.38
2023-03-31T16:35:33.403Z,98289.84
2023-03-31T16:38:02.716Z,98300.56
2023-03-31T16:40:32.747Z,98298.47
2023-03-31T16:43:13.919Z,98303.56
2023-03-31T16:45:44.263Z,98304.88
2023-03-31T16:48:16.391Z,98315.00
2023-03-31T16:50:45.798Z,98302.75
2023-03-31T16:53:14.044Z,98307.84
2023-03-31T16:55:42.036Z,98301.25
2023-03-31T16:58:11.739Z,98308.13
2023-03-31T17:00:40.353Z,98325.66
2023-03-31T17:03:09.911Z,98319.34
2023-03-31T17:05:39.152Z,98296.00
2023-03-31T17:08:08.470Z,98301.84
2023-03-31T17:10:36.600Z,98308.75
2023-03-31T17:13:04.594Z,98322.56
2023-03-31T17:15:36.330Z,98313.28
2023-03-31T17:18:05.040Z,98315.13
2023-03-31T17:20:34.164Z,98317.78
2023-03-31T17:23:02.272Z,98323.09
2023-03-31T17:25:30.208Z,98327.66
2023-03-31T17:28:00.501Z,98333.78
2023-03-31T17:30:28.609Z,98325.84
2023-03-31T17:32:58.504Z,98295.13
2023-03-31T17:35:26.741Z,98323.19
2023-03-31T17:37:55.223Z,98331.16
2023-03-31T17:40:25.191Z,98330.16
2023-03-31T17:42:54.390Z,98333.59
2023-03-31T17:45:22.387Z,98324.56
2023-03-31T17:47:50.369Z,98326.66
2023-03-31T17:50:19.680Z,98325.66
2023-03-31T17:52:47.701Z,98329.63
2023-03-31T17:55:15.716Z,98326.47
2023-03-31T17:57:43.380Z,98321.97
2023-03-31T18:00:15.249Z,98325.13
2023-03-31T18:02:43.552Z,98325.91
2023-03-31T18:05:11.876Z,98338.38
2023-03-31T18:07:41.414Z,98342.63
2023-03-31T18:10:10.657Z,98342.88
2023-03-31T18:12:38.716Z,98323.53
2023-03-31T18:15:07.708Z,98331.03
2023-03-31T18:17:36.437Z,98345.59
2023-03-31T18:20:05.486Z,98345.59
2023-03-31T18:22:33.814Z,98350.38
2023-03-31T18:25:02.851Z,98357.28
2023-03-31T18:27:30.826Z,98358.59
2023-03-31T18:29:58.702Z,98346.41
2023-03-31T18:32:26.476Z,98359.16
2023-03-31T18:34:54.226Z,98350.44
2023-03-31T18:37:22.845Z,98358.38
2023-03-31T18:39:50.552Z,98355.72
2023-03-31T18:42:24.893Z,98362.63
2023-03-31T18:44:52.909Z,98348.00
2023-03-31T18:47:22.350Z,98340.59
2023-03-31T18:49:53.801Z,98353.09
2023-03-31T18:52:22.153Z,98354.69
2023-03-31T18:54:51.409Z,98356.78
2023-03-31T18:57:21.099Z,98350.94
2023-03-31T18:59:49.613Z,98359.97
2023-03-31T19:02:18.068Z,98359.97
2023-03-31T19:04:46.858Z,98347.22
2023-03-31T19:07:14.840Z,98374.81
2023-03-31T19:09:42.731Z,98355.19
2023-03-31T19:12:12.790Z,98370.03
2023-03-31T19:14:45.894Z,98359.44
2023-03-31T19:17:14.102Z,98375.34
2023-03-31T19:19:41.764Z,98369.25
2023-03-31T19:22:09.587Z,98375.63
2023-03-31T19:24:38.162Z,98353.31
2023-03-31T19:27:05.841Z,98375.09
2023-03-31T19:29:35.244Z,98380.41
2023-03-31T19:32:05.388Z,98372.19
2023-03-31T19:34:33.825Z,98374.81
2023-03-31T19:37:02.282Z,98380.66
2023-03-31T19:39:30.017Z,98382.53
2023-03-31T19:41:57.689Z,98387.56
2023-03-31T19:44:25.374Z,98371.38
2023-03-31T19:46:53.554Z,98381.72
2023-03-31T19:49:22.771Z,98385.97
2023-03-31T19:51:50.461Z,98383.31
2023-03-31T19:54:18.169Z,98375.88
2023-03-31T19:56:46.493Z,98389.13
2023-03-31T19:59:14.172Z,98382.50
2023-03-31T20:01:42.781Z,98393.41
2023-03-31T20:04:12.102Z,98386.75
2023-03-31T20:06:41.606Z,98376.97
2023-03-31T20:09:09.991Z,98381.22
2023-03-31T20:11:38.122Z,98383.84
2023-03-31T20:14:06.170Z,98379.06
2023-03-31T20:16:35.473Z,98382.78
2023-03-31T20:19:06.083Z,98379.88
2023-03-31T20:21:35.838Z,98379.06
2023-03-31T20:24:05.700Z,98388.88
2023-03-31T20:26:35.306Z,98386.50
2023-03-31T20:29:04.016Z,98387.03
2023-03-31T20:31:36.702Z,98385.97
2023-03-31T20:34:06.035Z,98380.41
2023-03-31T20:36:33.789Z,98389.69
2023-03-31T20:39:04.415Z,98388.63
2023-03-31T20:41:37.074Z,98379.63
2023-03-31T20:44:07.424Z,98385.72
2023-03-31T20:46:35.748Z,98376.97
2023-03-31T20:49:05.246Z,98376.97
2023-03-31T20:51:35.247Z,98376.44
2023-03-31T20:54:03.921Z,98381.72
2023-03-31T20:56:35.370Z,98393.91
2023-03-31T20:59:03.798Z,98386.25
2023-03-31T21:01:33.662Z,98388.63
2023-03-31T21:04:03.208Z,98390.47
2023-03-31T21:06:33.548Z,98387.31
2023-03-31T21:09:01.640Z,98381.22
2023-03-31T21:11:30.169Z,98391.28
2023-03-31T21:13:59.731Z,98389.97
2023-03-31T21:16:27.803Z,98404.28
2023-03-31T21:18:56.232Z,98382.00
2023-03-31T21:21:25.102Z,98399.22
2023-03-31T21:23:53.419Z,98397.91
2023-03-31T21:26:22.584Z,98416.75
2023-03-31T21:28:54.235Z,98399.22
2023-03-31T21:31:25.914Z,98391.53
2023-03-31T21:33:57.639Z,98406.38
2023-03-31T21:36:27.262Z,98396.56
2023-03-31T21:38:57.547Z,98403.22
2023-03-31T21:41:28.596Z,98399.22
2023-03-31T21:44:00.453Z,98402.94
2023-03-31T21:46:34.139Z,98405.06
2023-03-31T21:49:02.984Z,98413.28
2023-03-31T21:51:31.035Z,98392.06
2023-03-31T21:53:59.730Z,98398.44
2023-03-31T21:56:32.153Z,98412.47
2023-03-31T21:59:01.580Z,98408.78
2023-03-31T22:01:31.474Z,98424.69
2023-03-31T22:04:00.523Z,98402.44
2023-03-31T22:06:29.180Z,98406.16
2023-03-31T22:08:57.251Z,98424.16
2023-03-31T22:11:26.767Z,98411.44
2023-03-31T22:13:55.280Z,98407.72
2023-03-31T22:16:25.978Z,98409.03
2023-03-31T22:18:56.403Z,98423.63
2023-03-31T22:21:26.381Z,98421.50
2023-03-31T22:23:55.545Z,98429.19
2023-03-31T22:26:24.505Z,98413.03
2023-03-31T22:28:52.814Z,98409.84
2023-03-31T22:31:21.019Z,98427.06
2023-03-31T22:33:49.954Z,98419.63
2023-03-31T22:36:19.415Z,98416.47
2023-03-31T22:38:47.837Z,98420.44
2023-03-31T22:41:16.942Z,98425.47
2023-03-31T22:43:46.170Z,98436.88
2023-03-31T22:46:16.107Z,98431.59
2023-03-31T22:48:44.821Z,98440.59
2023-03-31T22:51:13.288Z,98428.38
2023-03-31T22:53:42.898Z,98431.56
2023-03-31T22:56:13.703Z,98436.34
2023-03-31T22:58:42.088Z,98432.09
2023-03-31T23:01:16.187Z,98444.84
2023-03-31T23:03:44.555Z,98443.50
2023-03-31T23:06:13.756Z,98439.53
2023-03-31T23:08:45.462Z,98446.41
2023-03-31T23:11:14.712Z,98448.28
2023-03-31T23:13:43.073Z,98455.16
2023-03-31T23:16:13.797Z,98445.88
2023-03-31T23:18:46.000Z,98456.47
2023-03-31T23:21:16.908Z,98462.59
2023-03-31T23:23:46.845Z,98454.66
2023-03-31T23:26:16.060Z,98459.69
2023-03-31T23:28:46.193Z,98463.94
2023-03-31T23:31:14.854Z,98446.44
2023-03-31T23:33:43.129Z,98458.63
2023-03-31T23:36:17.450Z,98457.56
2023-03-31T23:38:47.677Z,98459.16
2023-03-31T23:41:16.715Z,98447.75
2023-03-31T23:43:46.372Z,98457.56
2023-03-31T23:46:14.377Z,98454.38
2023-03-31T23:48:42.528Z,98458.09
2023-03-31T23:51:11.344Z,98459.94
2023-03-31T23:53:39.874Z,98462.34
2023-03-31T23:56:12.308Z,98453.31
2023-03-31T23:58:41.702Z,98455.97
